sensor_id;sensor_type;location;lat;lon;timestamp;pressure;altitude;pressure_sealevel;temperature;humidity
14767;BME280;7475;53.558;9.970;2023-06-14T00:01:13;101792.88;;;16.36;100.00
14767;BME280;7475;53.558;9.970;2023-06-14T00:03:39;101799.22;;;16.35;100.00
14767;BME280;7475;53.558;9.970;2023-06-14T00:06:04;101794.06;;;16.32;100.00
14767;BME280;7475;53.558;9.970;2023-06-14T00:08:30;101803.09;;;16.31;100.00
14767;BME280;7475;53.558;9.970;2023-06-14T00:10:55;101799.66;;;16.29;100.00
14767;BME280;7475;53.558;9.970;2023-06-14T00:13:20;101803.31;;;16.28;100.00
14767;BME280;7475;53.558;9.970;2023-06-14T00:15:46;101808.69;;;16.28;100.00
14767;BME280;7475;53.558;9.970;2023-06-14T00:18:12;101808.00;;;16.24;100.00
14767;BME280;7475;53.558;9.970;2023-06-14T00:20:37;101809.75;;;16.25;100.00
14767;BME280;7475;53.558;9.970;2023-06-14T00:23:04;101816.16;;;16.23;100.00
14767;BME280;7475;53.558;9.970;2023-06-14T00:25:30;101811.03;;;16.19;100.00
14767;BME280;7475;53.558;9.970;2023-06-14T00:27:56;101812.00;;;16.18;100.00
14767;BME280;7475;53.558;9.970;2023-06-14T00:30:22;101809.53;;;16.15;100.00
14767;BME280;7475;53.558;9.970;2023-06-14T00:32:47;101814.06;;;16.15;100.00
14767;BME280;7475;53.558;9.970;2023-06-14T00:35:13;101826.69;;;16.13;100.00
14767;BME280;7475;53.558;9.970;2023-06-14T00:37:39;101824.13;;;16.11;100.00
14767;BME280;7475;53.558;9.970;2023-06-14T00:40:05;101827.78;;;16.10;100.00
14767;BME280;7475;53.558;9.970;2023-06-14T00:42:31;101826.06;;;16.09;100.00
14767;BME280;7475;53.558;9.970;2023-06-14T00:44:56;101820.91;;;16.06;100.00
14767;BME280;7475;53.558;9.970;2023-06-14T00:47:22;101835.31;;;16.05;100.00
14767;BME280;7475;53.558;9.970;2023-06-14T00:49:49;101833.56;;;16.04;100.00
14767;BME280;7475;53.558;9.970;2023-06-14T00:52:16;101828.44;;;16.01;100.00
14767;BME280;7475;53.558;9.970;2023-06-14T00:54:42;101837.44;;;16.00;100.00
14767;BME280;7475;53.558;9.970;2023-06-14T00:57:09;101834.00;;;15.98;100.00
14767;BME280;7475;53.558;9.970;2023-06-14T00:59:45;101837.63;;;15.97;100.00
14767;BME280;7475;53.558;9.970;2023-06-14T01:02:11;101839.56;;;15.95;100.00
14767;BME280;7475;53.558;9.970;2023-06-14T01:04:38;101832.50;;;15.94;100.00
14767;BME280;7475;53.558;9.970;2023-06-14T01:10:23;101848.03;;;15.89;100.00
14767;BME280;7475;53.558;9.970;2023-06-14T01:15:22;101842.16;;;15.83;100.00
14767;BME280;7475;53.558;9.970;2023-06-14T01:17:49;101844.09;;;15.81;100.00
14767;BME280;7475;53.558;9.970;2023-06-14T01:20:17;101845.16;;;15.79;100.00
14767;BME280;7475;53.558;9.970;2023-06-14T01:22:52;101845.25;;;15.77;100.00
14767;BME280;7475;53.558;9.970;2023-06-14T01:25:18;101843.63;;;15.75;100.00
14767;BME280;7475;53.558;9.970;2023-06-14T01:28:02;101846.41;;;15.73;100.00
14767;BME280;7475;53.558;9.970;2023-06-14T01:30:30;101850.03;;;15.72;100.00
14767;BME280;7475;53.558;9.970;2023-06-14T01:32:56;101855.41;;;15.72;100.00
14767;BME280;7475;53.558;9.970;2023-06-14T01:35:23;101854.66;;;15.70;100.00
14767;BME280;7475;53.558;9.970;2023-06-14T01:37:49;101853.16;;;15.66;100.00
14767;BME280;7475;53.558;9.970;2023-06-14T01:40:16;101852.41;;;15.64;100.00
14767;BME280;7475;53.558;9.970;2023-06-14T01:42:43;101856.03;;;15.63;100.00
14767;BME280;7475;53.558;9.970;2023-06-14T01:45:10;101855.28;;;15.61;100.00
14767;BME280;7475;53.558;9.970;2023-06-14T01:47:36;101850.88;;;15.60;100.00
14767;BME280;7475;53.558;9.970;2023-06-14T01:50:02;101856.44;;;15.57;100.00
14767;BME280;7475;53.558;9.970;2023-06-14T01:52:28;101857.44;;;15.56;100.00
14767;BME280;7475;53.558;9.970;2023-06-14T01:54:54;101862.00;;;15.54;100.00
14767;BME280;7475;53.558;9.970;2023-06-14T01:57:19;101863.94;;;15.52;100.00
14767;BME280;7475;53.558;9.970;2023-06-14T01:59:45;101848.09;;;15.48;100.00
14767;BME280;7475;53.558;9.970;2023-06-14T02:02:14;101857.94;;;15.48;100.00
14767;BME280;7475;53.558;9.970;2023-06-14T02:04:39;101857.31;;;15.44;100.00
14767;BME280;7475;53.558;9.970;2023-06-14T02:07:04;101859.97;;;15.44;100.00
14767;BME280;7475;53.558;9.970;2023-06-14T02:09:30;101854.84;;;15.41;100.00
14767;BME280;7475;53.558;9.970;2023-06-14T02:11:55;101861.13;;;15.40;100.00
14767;BME280;7475;53.558;9.970;2023-06-14T02:14:20;101852.38;;;15.38;100.00
14767;BME280;7475;53.558;9.970;2023-06-14T02:16:46;101859.66;;;15.36;100.00
14767;BME280;7475;53.558;9.970;2023-06-14T02:19:17;101858.88;;;15.34;100.00
14767;BME280;7475;53.558;9.970;2023-06-14T02:21:43;101861.75;;;15.31;100.00
14767;BME280;7475;53.558;9.970;2023-06-14T02:24:08;101870.75;;;15.30;100.00
14767;BME280;7475;53.558;9.970;2023-06-14T02:26:34;101861.94;;;15.28;100.00
14767;BME280;7475;53.558;9.970;2023-06-14T02:29:00;101866.56;;;15.26;100.00
14767;BME280;7475;53.558;9.970;2023-06-14T02:31:25;101869.25;;;15.26;100.00
14767;BME280;7475;53.558;9.970;2023-06-14T02:33:51;101867.75;;;15.22;100.00
14767;BME280;7475;53.558;9.970;2023-06-14T02:36:16;101872.13;;;15.23;100.00
14767;BME280;7475;53.558;9.970;2023-06-14T02:38:41;101863.44;;;15.19;100.00
14767;BME280;7475;53.558;9.970;2023-06-14T02:41:07;101871.56;;;15.18;100.00
14767;BME280;7475;53.558;9.970;2023-06-14T02:43:32;101871.66;;;15.16;100.00
14767;BME280;7475;53.558;9.970;2023-06-14T02:45:57;101870.06;;;15.14;100.00
14767;BME280;7475;53.558;9.970;2023-06-14T02:48:23;101868.34;;;15.13;100.00
14767;BME280;7475;53.558;9.970;2023-06-14T02:50:48;101874.66;;;15.11;100.00
14767;BME280;7475;53.558;9.970;2023-06-14T02:53:13;101873.81;;;15.11;100.00
14767;BME280;7475;53.558;9.970;2023-06-14T02:55:39;101872.06;;;15.10;100.00
14767;BME280;7475;53.558;9.970;2023-06-14T02:58:05;101876.56;;;15.09;100.00
14767;BME280;7475;53.558;9.970;2023-06-14T03:00:30;101876.56;;;15.09;100.00
14767;BME280;7475;53.558;9.970;2023-06-14T03:02:56;101882.88;;;15.08;100.00
14767;BME280;7475;53.558;9.970;2023-06-14T03:05:21;101877.53;;;15.08;100.00
14767;BME280;7475;53.558;9.970;2023-06-14T03:07:47;101881.19;;;15.07;100.00
14767;BME280;7475;53.558;9.970;2023-06-14T03:10:12;101881.19;;;15.07;100.00
14767;BME280;7475;53.558;9.970;2023-06-14T03:12:38;101884.81;;;15.06;100.00
14767;BME280;7475;53.558;9.970;2023-06-14T03:15:04;101884.81;;;15.06;100.00
14767;BME280;7475;53.558;9.970;2023-06-14T03:17:29;101883.06;;;15.05;100.00
14767;BME280;7475;53.558;9.970;2023-06-14T03:19:58;101888.44;;;15.05;100.00
14767;BME280;7475;53.558;9.970;2023-06-14T03:22:23;101895.50;;;15.06;100.00
14767;BME280;7475;53.558;9.970;2023-06-14T03:24:51;101890.16;;;15.06;100.00
14767;BME280;7475;53.558;9.970;2023-06-14T03:27:16;101893.78;;;15.05;100.00
14767;BME280;7475;53.558;9.970;2023-06-14T03:29:42;101897.44;;;15.04;100.00
14767;BME280;7475;53.558;9.970;2023-06-14T03:32:07;101897.44;;;15.04;100.00
14767;BME280;7475;53.558;9.970;2023-06-14T03:34:33;101903.63;;;15.05;100.00
14767;BME280;7475;53.558;9.970;2023-06-14T03:36:58;101902.78;;;15.04;100.00
14767;BME280;7475;53.558;9.970;2023-06-14T03:39:23;101902.78;;;15.04;100.00
14767;BME280;7475;53.558;9.970;2023-06-14T03:41:49;101904.47;;;15.05;100.00
14767;BME280;7475;53.558;9.970;2023-06-14T03:44:16;101909.81;;;15.05;100.00
14767;BME280;7475;53.558;9.970;2023-06-14T03:46:42;101915.19;;;15.05;100.00
14767;BME280;7475;53.558;9.970;2023-06-14T03:49:08;101911.56;;;15.06;100.00
14767;BME280;7475;53.558;9.970;2023-06-14T03:51:33;101912.50;;;15.05;100.00
14767;BME280;7475;53.558;9.970;2023-06-14T03:54:00;101920.34;;;15.08;100.00
14767;BME280;7475;53.558;9.970;2023-06-14T03:56:25;101918.63;;;15.07;100.00
14767;BME280;7475;53.558;9.970;2023-06-14T03:58:52;101927.41;;;15.09;100.00
14767;BME280;7475;53.558;9.970;2023-06-14T04:01:17;101925.50;;;15.11;100.00
14767;BME280;7475;53.558;9.970;2023-06-14T04:03:42;101928.94;;;15.14;100.00
14767;BME280;7475;53.558;9.970;2023-06-14T04:06:08;101941.34;;;15.15;100.00
14767;BME280;7475;53.558;9.970;2023-06-14T04:08:34;101939.41;;;15.17;100.00
14767;BME280;7475;53.558;9.970;2023-06-14T04:11:00;101942.88;;;15.19;100.00
14767;BME280;7475;53.558;9.970;2023-06-14T04:13:25;101948.03;;;15.22;100.00
14767;BME280;7475;53.558;9.970;2023-06-14T04:15:51;101952.41;;;15.23;100.00
14767;BME280;7475;53.558;9.970;2023-06-14T04:18:16;101953.19;;;15.25;100.00
14767;BME280;7475;53.558;9.970;2023-06-14T04:20:43;101957.34;;;15.29;100.00
14767;BME280;7475;53.558;9.970;2023-06-14T04:23:13;101947.41;;;15.31;100.00
14767;BME280;7475;53.558;9.970;2023-06-14T04:25:39;101955.31;;;15.33;100.00
14767;BME280;7475;53.558;9.970;2023-06-14T04:28:05;101955.03;;;15.37;100.00
14767;BME280;7475;53.558;9.970;2023-06-14T04:30:33;101962.00;;;15.40;100.00
14767;BME280;7475;53.558;9.970;2023-06-14T04:33:00;101964.59;;;15.41;100.00
14767;BME280;7475;53.558;9.970;2023-06-14T04:35:26;101964.38;;;15.44;100.00
14767;BME280;7475;53.558;9.970;2023-06-14T04:37:52;101971.22;;;15.48;100.00
14767;BME280;7475;53.558;9.970;2023-06-14T04:40:18;101967.59;;;15.50;100.00
14767;BME280;7475;53.558;9.970;2023-06-14T04:42:44;101964.72;;;15.53;100.00
14767;BME280;7475;53.558;9.970;2023-06-14T04:45:10;101955.63;;;15.55;100.00
14767;BME280;7475;53.558;9.970;2023-06-14T04:47:36;101956.28;;;15.59;100.00
14767;BME280;7475;53.558;9.970;2023-06-14T04:50:02;101954.38;;;15.61;100.00
14767;BME280;7475;53.558;9.970;2023-06-14T04:52:28;101957.78;;;15.63;100.00
14767;BME280;7475;53.558;9.970;2023-06-14T04:54:55;101961.88;;;15.69;100.00
14767;BME280;7475;53.558;9.970;2023-06-14T04:57:21;101952.75;;;15.71;100.00
14767;BME280;7475;53.558;9.970;2023-06-14T04:59:48;101965.09;;;15.74;100.00
14767;BME280;7475;53.558;9.970;2023-06-14T05:02:13;101971.13;;;15.77;100.00
14767;BME280;7475;53.558;9.970;2023-06-14T05:04:39;101965.56;;;15.80;100.00
14767;BME280;7475;53.558;9.970;2023-06-14T05:07:08;101959.16;;;15.83;100.00
14767;BME280;7475;53.558;9.970;2023-06-14T05:09:37;101959.81;;;15.87;100.00
14767;BME280;7475;53.558;9.970;2023-06-14T05:12:03;101954.25;;;15.90;100.00
14767;BME280;7475;53.558;9.970;2023-06-14T05:14:28;101963.03;;;15.92;100.00
14767;BME280;7475;53.558;9.970;2023-06-14T05:16:54;101959.19;;;15.96;100.00
14767;BME280;7475;53.558;9.970;2023-06-14T05:19:19;101949.97;;;16.00;100.00
14767;BME280;7475;53.558;9.970;2023-06-14T05:21:46;101955.09;;;16.03;100.00
14767;BME280;7475;53.558;9.970;2023-06-14T05:24:12;101962.84;;;16.08;100.00
14767;BME280;7475;53.558;9.970;2023-06-14T05:26:38;101959.84;;;16.12;100.00
14767;BME280;7475;53.558;9.970;2023-06-14T05:29:03;101962.31;;;16.15;100.00
14767;BME280;7475;53.558;9.970;2023-06-14T05:31:28;101962.84;;;16.20;100.00
14767;BME280;7475;53.558;9.970;2023-06-14T05:33:54;101953.63;;;16.25;100.00
14767;BME280;7475;53.558;9.970;2023-06-14T05:36:20;101960.47;;;16.29;100.00
14767;BME280;7475;53.558;9.970;2023-06-14T05:38:46;101961.88;;;16.34;100.00
14767;BME280;7475;53.558;9.970;2023-06-14T05:41:12;101956.22;;;16.39;100.00
14767;BME280;7475;53.558;9.970;2023-06-14T05:43:38;101954.06;;;16.44;100.00
14767;BME280;7475;53.558;9.970;2023-06-14T05:46:03;101953.72;;;16.49;100.00
14767;BME280;7475;53.558;9.970;2023-06-14T05:48:29;101958.56;;;16.56;100.00
14767;BME280;7475;53.558;9.970;2023-06-14T05:50:55;101957.25;;;16.62;100.00
14767;BME280;7475;53.558;9.970;2023-06-14T05:53:21;101963.25;;;16.66;100.00
14767;BME280;7475;53.558;9.970;2023-06-14T05:55:46;101968.16;;;16.72;100.00
14767;BME280;7475;53.558;9.970;2023-06-14T05:58:11;101978.47;;;16.78;100.00
14767;BME280;7475;53.558;9.970;2023-06-14T06:00:39;101972.88;;;16.81;100.00
14767;BME280;7475;53.558;9.970;2023-06-14T06:03:04;101971.59;;;16.87;100.00
14767;BME280;7475;53.558;9.970;2023-06-14T06:05:30;101977.50;;;16.92;100.00
14767;BME280;7475;53.558;9.970;2023-06-14T06:07:55;101973.50;;;16.98;100.00
14767;BME280;7475;53.558;9.970;2023-06-14T06:10:21;101973.06;;;17.04;100.00
14767;BME280;7475;53.558;9.970;2023-06-14T06:12:46;101978.00;;;17.10;100.00
14767;BME280;7475;53.558;9.970;2023-06-14T06:15:13;101979.25;;;17.17;100.00
14767;BME280;7475;53.558;9.970;2023-06-14T06:17:39;101979.03;;;17.20;100.00
14767;BME280;7475;53.558;9.970;2023-06-14T06:20:06;101983.94;;;17.26;100.00
14767;BME280;7475;53.558;9.970;2023-06-14T06:22:35;101990.81;;;17.31;100.00
14767;BME280;7475;53.558;9.970;2023-06-14T06:25:01;101984.22;;;17.35;100.00
14767;BME280;7475;53.558;9.970;2023-06-14T06:27:26;101991.00;;;17.40;100.00
14767;BME280;7475;53.558;9.970;2023-06-14T06:29:51;101989.88;;;17.43;100.00
14767;BME280;7475;53.558;9.970;2023-06-14T06:32:17;101981.50;;;17.47;100.00
14767;BME280;7475;53.558;9.970;2023-06-14T06:34:43;101986.53;;;17.52;100.00
14767;BME280;7475;53.558;9.970;2023-06-14T06:37:08;101985.34;;;17.56;100.00
14767;BME280;7475;53.558;9.970;2023-06-14T06:39:34;101994.63;;;17.63;100.00
14767;BME280;7475;53.558;9.970;2023-06-14T06:41:59;101991.50;;;17.70;100.00
14767;BME280;7475;53.558;9.970;2023-06-14T06:44:24;101990.28;;;17.74;100.00
14767;BME280;7475;53.558;9.970;2023-06-14T06:46:50;101989.81;;;17.80;100.00
14767;BME280;7475;53.558;9.970;2023-06-14T06:49:15;102005.38;;;17.88;100.00
14767;BME280;7475;53.558;9.970;2023-06-14T06:51:41;102003.19;;;17.93;100.00
14767;BME280;7475;53.558;9.970;2023-06-14T06:54:07;102001.88;;;17.98;100.00
14767;BME280;7475;53.558;9.970;2023-06-14T06:56:33;102010.44;;;18.04;100.00
14767;BME280;7475;53.558;9.970;2023-06-14T06:58:59;102007.41;;;18.08;100.00
14767;BME280;7475;53.558;9.970;2023-06-14T07:01:24;102015.13;;;18.13;100.00
14767;BME280;7475;53.558;9.970;2023-06-14T07:03:54;102009.16;;;18.20;100.00
14767;BME280;7475;53.558;9.970;2023-06-14T07:06:20;102003.19;;;18.28;100.00
14767;BME280;7475;53.558;9.970;2023-06-14T07:08:45;102009.56;;;18.38;100.00
14767;BME280;7475;53.558;9.970;2023-06-14T07:11:13;102016.16;;;18.46;100.00
14767;BME280;7475;53.558;9.970;2023-06-14T07:13:38;102019.63;;;18.59;100.00
14767;BME280;7475;53.558;9.970;2023-06-14T07:16:04;102016.69;;;18.73;100.00
14767;BME280;7475;53.558;9.970;2023-06-14T07:18:29;102013.78;;;18.88;100.00
14767;BME280;7475;53.558;9.970;2023-06-14T07:20:56;102016.94;;;19.04;100.00
14767;BME280;7475;53.558;9.970;2023-06-14T07:23:22;102019.97;;;19.22;100.00
14767;BME280;7475;53.558;9.970;2023-06-14T07:25:47;102008.53;;;19.41;100.00
14767;BME280;7475;53.558;9.970;2023-06-14T07:28:13;102019.00;;;19.67;100.00
14767;BME280;7475;53.558;9.970;2023-06-14T07:30:38;102015.91;;;20.04;100.00
14767;BME280;7475;53.558;9.970;2023-06-14T07:33:03;102019.59;;;20.45;100.00
14767;BME280;7475;53.558;9.970;2023-06-14T07:35:29;102006.72;;;20.89;100.00
14767;BME280;7475;53.558;9.970;2023-06-14T07:37:54;102001.31;;;21.30;100.00
14767;BME280;7475;53.558;9.970;2023-06-14T07:40:20;102008.94;;;21.66;100.00
14767;BME280;7475;53.558;9.970;2023-06-14T07:42:45;102012.16;;;21.98;100.00
14767;BME280;7475;53.558;9.970;2023-06-14T07:45:13;102012.25;;;22.26;100.00
14767;BME280;7475;53.558;9.970;2023-06-14T07:47:39;102004.84;;;22.48;100.00
14767;BME280;7475;53.558;9.970;2023-06-14T07:50:05;102010.47;;;22.64;100.00
14767;BME280;7475;53.558;9.970;2023-06-14T07:52:30;102010.13;;;22.77;100.00
14767;BME280;7475;53.558;9.970;2023-06-14T07:54:56;102013.81;;;22.86;100.00
14767;BME280;7475;53.558;9.970;2023-06-14T07:57:22;102007.47;;;22.95;100.00
14767;BME280;7475;53.558;9.970;2023-06-14T07:59:47;102003.31;;;23.11;100.00
14767;BME280;7475;53.558;9.970;2023-06-14T08:02:12;102013.19;;;23.30;100.00
14767;BME280;7475;53.558;9.970;2023-06-14T08:04:38;102004.06;;;23.49;100.00
14767;BME280;7475;53.558;9.970;2023-06-14T08:07:04;102003.59;;;23.71;100.00
14767;BME280;7475;53.558;9.970;2023-06-14T08:09:29;101998.69;;;23.93;100.00
14767;BME280;7475;53.558;9.970;2023-06-14T08:11:55;102002.25;;;24.11;100.00
14767;BME280;7475;53.558;9.970;2023-06-14T08:14:21;102006.78;;;24.29;99.08
14767;BME280;7475;53.558;9.970;2023-06-14T08:16:46;101986.31;;;24.43;99.98
14767;BME280;7475;53.558;9.970;2023-06-14T08:19:11;101997.84;;;24.63;100.00
14767;BME280;7475;53.558;9.970;2023-06-14T08:21:37;101994.66;;;24.67;97.88
14767;BME280;7475;53.558;9.970;2023-06-14T08:24:02;102004.00;;;24.73;95.51
14767;BME280;7475;53.558;9.970;2023-06-14T08:26:28;101998.97;;;24.86;96.51
14767;BME280;7475;53.558;9.970;2023-06-14T08:28:55;101999.03;;;25.03;93.59
14767;BME280;7475;53.558;9.970;2023-06-14T08:31:21;101999.06;;;25.19;88.87
14767;BME280;7475;53.558;9.970;2023-06-14T08:33:46;101992.34;;;25.32;85.88
14767;BME280;7475;53.558;9.970;2023-06-14T08:36:11;101993.19;;;25.49;87.93
14767;BME280;7475;53.558;9.970;2023-06-14T08:38:38;101998.50;;;25.67;84.23
14767;BME280;7475;53.558;9.970;2023-06-14T08:41:07;101994.75;;;25.84;79.25
14767;BME280;7475;53.558;9.970;2023-06-14T08:43:33;101998.34;;;26.01;77.83
14767;BME280;7475;53.558;9.970;2023-06-14T08:46:01;101996.47;;;26.10;67.30
14767;BME280;7475;53.558;9.970;2023-06-14T08:48:27;101996.81;;;26.23;69.67
14767;BME280;7475;53.558;9.970;2023-06-14T08:50:56;101998.63;;;26.39;68.12
14767;BME280;7475;53.558;9.970;2023-06-14T08:53:28;101996.41;;;26.43;59.32
14767;BME280;7475;53.558;9.970;2023-06-14T08:55:57;102003.88;;;26.49;57.76
14767;BME280;7475;53.558;9.970;2023-06-14T08:58:22;102005.56;;;26.58;57.42
14767;BME280;7475;53.558;9.970;2023-06-14T09:00:49;101998.06;;;26.60;54.61
14767;BME280;7475;53.558;9.970;2023-06-14T09:03:17;102008.94;;;26.77;55.84
14767;BME280;7475;53.558;9.970;2023-06-14T09:05:43;102005.63;;;26.89;54.98
14767;BME280;7475;53.558;9.970;2023-06-14T09:08:08;101993.84;;;26.97;51.03
14767;BME280;7475;53.558;9.970;2023-06-14T09:10:35;102002.28;;;27.11;51.47
14767;BME280;7475;53.558;9.970;2023-06-14T09:13:03;101999.47;;;27.27;50.21
14767;BME280;7475;53.558;9.970;2023-06-14T09:15:30;101984.78;;;27.36;48.44
14767;BME280;7475;53.558;9.970;2023-06-14T09:17:55;101999.63;;;27.57;49.55
14767;BME280;7475;53.558;9.970;2023-06-14T09:20:23;101993.69;;;27.76;49.41
14767;BME280;7475;53.558;9.970;2023-06-14T09:22:49;101994.53;;;28.00;49.44
14767;BME280;7475;53.558;9.970;2023-06-14T09:25:15;101998.81;;;28.32;49.55
14767;BME280;7475;53.558;9.970;2023-06-14T09:27:41;101995.94;;;28.64;48.28
14767;BME280;7475;53.558;9.970;2023-06-14T09:30:09;101997.78;;;28.93;47.85
14767;BME280;7475;53.558;9.970;2023-06-14T09:32:38;101989.94;;;29.20;45.77
14767;BME280;7475;53.558;9.970;2023-06-14T09:35:07;101991.44;;;29.44;45.77
14767;BME280;7475;53.558;9.970;2023-06-14T09:37:33;101980.09;;;29.69;44.22
14767;BME280;7475;53.558;9.970;2023-06-14T09:39:59;101982.22;;;29.95;44.61
14767;BME280;7475;53.558;9.970;2023-06-14T09:42:25;101979.41;;;30.10;41.24
14767;BME280;7475;53.558;9.970;2023-06-14T09:44:53;101982.38;;;30.15;39.25
14767;BME280;7475;53.558;9.970;2023-06-14T09:47:20;101985.56;;;30.19;38.83
14767;BME280;7475;53.558;9.970;2023-06-14T09:49:46;101980.88;;;30.41;39.69
14767;BME280;7475;53.558;9.970;2023-06-14T09:52:14;101986.25;;;30.62;38.89
14767;BME280;7475;53.558;9.970;2023-06-14T09:54:42;101978.22;;;31.02;39.31
14767;BME280;7475;53.558;9.970;2023-06-14T09:57:15;101985.13;;;31.60;39.27
14767;BME280;7475;53.558;9.970;2023-06-14T09:59:45;101985.53;;;31.97;37.48
14767;BME280;7475;53.558;9.970;2023-06-14T10:02:52;101985.97;;;32.21;35.21
14767;BME280;7475;53.558;9.970;2023-06-14T10:05:21;101980.56;;;32.66;35.12
14767;BME280;7475;53.558;9.970;2023-06-14T10:07:53;101986.53;;;33.01;34.58
14767;BME280;7475;53.558;9.970;2023-06-14T10:10:18;101984.88;;;33.39;33.84
14767;BME280;7475;53.558;9.970;2023-06-14T10:12:44;101982.22;;;33.83;32.69
14767;BME280;7475;53.558;9.970;2023-06-14T10:15:17;101976.06;;;33.55;32.34
14767;BME280;7475;53.558;9.970;2023-06-14T10:17:50;101980.53;;;33.25;32.14
14767;BME280;7475;53.558;9.970;2023-06-14T10:23:09;101977.34;;;34.47;30.53
14767;BME280;7475;53.558;9.970;2023-06-14T10:25:35;101968.00;;;35.69;27.63
14767;BME280;7475;53.558;9.970;2023-06-14T10:30:29;101968.00;;;35.69;27.63
14767;BME280;7475;53.558;9.970;2023-06-14T10:33:04;62106.31;;;-146.41;100.00
14767;BME280;7475;53.558;9.970;2023-06-14T10:35:31;62106.31;;;-146.41;100.00
14767;BME280;7475;53.558;9.970;2023-06-14T10:38:06;62106.31;;;-146.41;100.00
14767;BME280;7475;53.558;9.970;2023-06-14T10:40:33;62106.31;;;-146.41;100.00
14767;BME280;7475;53.558;9.970;2023-06-14T10:42:59;62106.31;;;-146.41;100.00
14767;BME280;7475;53.558;9.970;2023-06-14T10:45:24;62106.31;;;-146.41;100.00
14767;BME280;7475;53.558;9.970;2023-06-14T10:47:49;62106.31;;;-146.41;100.00
14767;BME280;7475;53.558;9.970;2023-06-14T10:50:17;62106.31;;;-146.41;100.00
14767;BME280;7475;53.558;9.970;2023-06-14T10:52:44;62106.31;;;-146.41;100.00
14767;BME280;7475;53.558;9.970;2023-06-14T10:55:10;62106.31;;;-146.41;100.00
14767;BME280;7475;53.558;9.970;2023-06-14T10:57:42;62106.31;;;-146.41;100.00
14767;BME280;7475;53.558;9.970;2023-06-14T11:00:09;62106.31;;;-146.41;100.00
14767;BME280;7475;53.558;9.970;2023-06-14T11:05:52;101934.56;;;44.61;18.28
14767;BME280;7475;53.558;9.970;2023-06-14T11:08:27;101930.75;;;45.42;16.53
14767;BME280;7475;53.558;9.970;2023-06-14T11:10:59;101917.88;;;46.10;15.86
14767;BME280;7475;53.558;9.970;2023-06-14T11:13:25;101918.16;;;43.82;17.09
14767;BME280;7475;53.558;9.970;2023-06-14T11:15:51;101927.03;;;41.55;19.00
14767;BME280;7475;53.558;9.970;2023-06-14T11:18:18;101919.63;;;39.88;20.07
14767;BME280;7475;53.558;9.970;2023-06-14T11:20:46;101925.38;;;38.35;21.49
14767;BME280;7475;53.558;9.970;2023-06-14T11:23:11;101928.28;;;36.87;22.69
14767;BME280;7475;53.558;9.970;2023-06-14T11:25:36;101914.88;;;36.67;23.43
14767;BME280;7475;53.558;9.970;2023-06-14T11:28:02;101909.81;;;38.29;22.61
14767;BME280;7475;53.558;9.970;2023-06-14T11:30:27;101901.69;;;38.98;22.09
14767;BME280;7475;53.558;9.970;2023-06-14T11:32:54;101899.25;;;39.77;21.23
14767;BME280;7475;53.558;9.970;2023-06-14T11:35:22;101904.09;;;39.17;21.55
14767;BME280;7475;53.558;9.970;2023-06-14T11:37:55;101888.25;;;37.58;22.78
14767;BME280;7475;53.558;9.970;2023-06-14T11:40:24;101897.13;;;36.10;24.07
14767;BME280;7475;53.558;9.970;2023-06-14T11:42:58;101902.00;;;35.14;25.16
14767;BME280;7475;53.558;9.970;2023-06-14T11:45:24;101895.47;;;35.86;25.06
14767;BME280;7475;53.558;9.970;2023-06-14T11:47:50;101896.84;;;37.95;23.55
14767;BME280;7475;53.558;9.970;2023-06-14T11:50:15;101893.25;;;39.96;21.26
14767;BME280;7475;53.558;9.970;2023-06-14T11:52:41;101890.56;;;39.63;21.26
14767;BME280;7475;53.558;9.970;2023-06-14T11:55:06;101885.88;;;37.83;22.19
14767;BME280;7475;53.558;9.970;2023-06-14T11:57:35;101897.38;;;35.97;24.16
14767;BME280;7475;53.558;9.970;2023-06-14T12:00:06;101893.69;;;34.53;25.77
14767;BME280;7475;53.558;9.970;2023-06-14T12:02:40;62106.31;;;-146.41;100.00
14767;BME280;7475;53.558;9.970;2023-06-14T12:05:06;62106.31;;;-146.41;100.00
14767;BME280;7475;53.558;9.970;2023-06-14T12:07:37;62106.31;;;-146.41;100.00
14767;BME280;7475;53.558;9.970;2023-06-14T12:12:28;62106.31;;;-146.41;100.00
14767;BME280;7475;53.558;9.970;2023-06-14T12:14:55;62106.31;;;-146.41;100.00
14767;BME280;7475;53.558;9.970;2023-06-14T12:17:22;62106.31;;;-146.41;100.00
14767;BME280;7475;53.558;9.970;2023-06-14T12:19:48;62106.31;;;-146.41;100.00
14767;BME280;7475;53.558;9.970;2023-06-14T12:22:15;62106.31;;;-146.41;100.00
14767;BME280;7475;53.558;9.970;2023-06-14T12:24:44;62106.31;;;-146.41;100.00
14767;BME280;7475;53.558;9.970;2023-06-14T12:27:09;62106.31;;;-146.41;100.00
14767;BME280;7475;53.558;9.970;2023-06-14T12:29:37;62106.31;;;-146.41;100.00
14767;BME280;7475;53.558;9.970;2023-06-14T12:32:02;62106.31;;;-146.41;100.00
14767;BME280;7475;53.558;9.970;2023-06-14T12:34:28;62106.31;;;-146.41;100.00
14767;BME280;7475;53.558;9.970;2023-06-14T12:36:53;62106.31;;;-146.41;100.00
14767;BME280;7475;53.558;9.970;2023-06-14T12:39:19;62106.31;;;-146.41;100.00
14767;BME280;7475;53.558;9.970;2023-06-14T12:41:46;62106.31;;;-146.41;100.00
14767;BME280;7475;53.558;9.970;2023-06-14T12:44:12;62106.31;;;-146.41;100.00
14767;BME280;7475;53.558;9.970;2023-06-14T12:46:38;62106.31;;;-146.41;100.00
14767;BME280;7475;53.558;9.970;2023-06-14T12:49:11;62106.31;;;-146.41;100.00
14767;BME280;7475;53.558;9.970;2023-06-14T12:51:37;62106.31;;;-146.41;100.00
14767;BME280;7475;53.558;9.970;2023-06-14T12:54:03;62106.31;;;-146.41;100.00
14767;BME280;7475;53.558;9.970;2023-06-14T12:56:28;62106.31;;;-146.41;100.00
14767;BME280;7475;53.558;9.970;2023-06-14T12:58:54;62106.31;;;-146.41;100.00
14767;BME280;7475;53.558;9.970;2023-06-14T13:01:19;62106.31;;;-146.41;100.00
14767;BME280;7475;53.558;9.970;2023-06-14T13:03:48;62106.31;;;-146.41;100.00